createdAt,value
2023-05-10T00:01:19.589Z,7.30
2023-05-10T00:03:47.059Z,7.40
2023-05-10T00:06:14.281Z,7.30
2023-05-10T00:08:41.650Z,7.30
2023-05-10T00:11:08.847Z,7.20
2023-05-10T00:13:36.079Z,7.20
2023-05-10T00:16:03.894Z,7.20
2023-05-10T00:18:31.006Z,7.10
2023-05-10T00:20:58.598Z,7.10
2023-05-10T00:23:25.644Z,7.10
2023-05-10T00:25:52.933Z,7.00
2023-05-10T00:28:20.248Z,7.10
2023-05-10T00:30:47.508Z,7.00
2023-05-10T00:33:14.838Z,7.00
2023-05-10T00:35:42.997Z,7.00
2023-05-10T00:38:10.023Z,7.00
2023-05-10T00:40:38.520Z,7.00
2023-05-10T00:43:10.928Z,7.00
2023-05-10T00:45:38.616Z,7.00
2023-05-10T00:48:06.270Z,7.00
2023-05-10T00:50:34.853Z,7.00
2023-05-10T00:53:03.628Z,7.00
2023-05-10T00:55:32.030Z,6.90
2023-05-10T00:57:59.649Z,6.90
2023-05-10T01:00:26.973Z,6.90
2023-05-10T01:02:55.702Z,6.80
2023-05-10T01:05:23.251Z,6.80
2023-05-10T01:07:51.376Z,6.80
2023-05-10T01:10:19.596Z,6.70
2023-05-10T01:12:48.692Z,6.70
2023-05-10T01:15:17.562Z,6.60
2023-05-10T01:17:47.852Z,6.60
2023-05-10T01:20:16.732Z,6.50
2023-05-10T01:23:11.943Z,6.60
2023-05-10T01:26:14.805Z,6.60
2023-05-10T01:29:09.418Z,6.60
2023-05-10T01:32:03.692Z,6.50
2023-05-10T01:34:37.162Z,6.60
2023-05-10T01:37:10.165Z,6.60
2023-05-10T01:39:47.022Z,6.60
2023-05-10T01:42:24.227Z,6.70
2023-05-10T01:45:09.052Z,6.60
2023-05-10T01:47:41.440Z,6.60
2023-05-10T01:50:24.791Z,6.60
2023-05-10T01:52:56.347Z,6.60
2023-05-10T01:55:28.926Z,6.50
2023-05-10T01:58:06.751Z,6.50
2023-05-10T02:00:35.549Z,6.50
2023-05-10T02:03:07.917Z,6.40
2023-05-10T02:05:36.453Z,6.40
2023-05-10T02:08:07.093Z,6.40
2023-05-10T02:10:37.268Z,6.40
2023-05-10T02:13:07.334Z,6.40
2023-05-10T02:15:35.649Z,6.40
2023-05-10T02:18:05.194Z,6.40
2023-05-10T02:20:33.877Z,6.40
2023-05-10T02:23:02.398Z,6.40
2023-05-10T02:25:32.807Z,6.30
2023-05-10T02:28:02.753Z,6.30
2023-05-10T02:30:32.478Z,6.30
2023-05-10T02:33:00.577Z,6.30
2023-05-10T02:35:29.615Z,6.30
2023-05-10T02:37:59.839Z,6.20
2023-05-10T02:40:28.889Z,6.20
2023-05-10T02:42:59.928Z,6.10
2023-05-10T02:45:31.471Z,6.20
2023-05-10T02:47:59.927Z,6.10
2023-05-10T02:50:31.015Z,6.10
2023-05-10T02:53:04.283Z,6.00
2023-05-10T02:55:37.758Z,6.00
2023-05-10T02:58:05.493Z,6.00
2023-05-10T03:00:33.419Z,5.90
2023-05-10T03:03:01.575Z,5.90
2023-05-10T03:05:29.273Z,5.80
2023-05-10T03:08:01.777Z,5.80
2023-05-10T03:10:31.895Z,5.80
2023-05-10T03:13:26.732Z,5.80
2023-05-10T03:16:09.025Z,5.90
2023-05-10T03:18:58.144Z,5.80
2023-05-10T03:21:29.925Z,5.80
2023-05-10T03:24:05.236Z,5.70
2023-05-10T03:26:33.923Z,5.70
2023-05-10T03:29:10.020Z,5.70
2023-05-10T03:31:37.269Z,5.70
2023-05-10T03:34:04.932Z,5.80
2023-05-10T03:36:32.023Z,5.70
2023-05-10T03:38:59.968Z,5.80
2023-05-10T03:41:27.858Z,5.80
2023-05-10T03:43:55.317Z,5.80
2023-05-10T03:46:23.021Z,5.80
2023-05-10T03:48:50.889Z,5.80
2023-05-10T03:51:18.788Z,5.80
2023-05-10T03:53:46.025Z,5.80
2023-05-10T03:56:13.453Z,5.80
2023-05-10T03:58:40.911Z,5.80
2023-05-10T04:01:08.155Z,5.80
2023-05-10T04:03:37.514Z,5.90
2023-05-10T04:06:06.495Z,6.00
2023-05-10T04:08:33.768Z,6.10
2023-05-10T04:11:09.880Z,6.20
2023-05-10T04:13:37.312Z,6.30
2023-05-10T04:16:05.249Z,6.50
2023-05-10T04:18:33.012Z,6.60
2023-05-10T04:21:00.592Z,6.70
2023-05-10T04:23:29.020Z,6.80
2023-05-10T04:26:03.696Z,6.80
2023-05-10T04:28:30.863Z,6.90
2023-05-10T04:31:06.798Z,7.00
2023-05-10T04:33:34.490Z,7.10
2023-05-10T04:36:01.864Z,7.20
2023-05-10T04:38:30.924Z,7.30
2023-05-10T04:41:07.417Z,7.30
2023-05-10T04:43:35.206Z,7.40
2023-05-10T04:46:02.504Z,7.50
2023-05-10T04:48:30.068Z,7.60
2023-05-10T04:50:57.488Z,7.70
2023-05-10T04:53:24.980Z,7.90
2023-05-10T04:55:52.087Z,8.10
2023-05-10T04:58:19.362Z,8.20
2023-05-10T05:00:46.525Z,8.50
2023-05-10T05:03:13.892Z,8.70
2023-05-10T05:05:41.199Z,8.90
2023-05-10T05:08:08.349Z,9.10
2023-05-10T05:10:35.973Z,9.30
2023-05-10T05:13:03.074Z,9.50
2023-05-10T05:15:31.640Z,9.70
2023-05-10T05:17:58.949Z,9.90
2023-05-10T05:20:26.305Z,10.10
2023-05-10T05:22:53.483Z,10.20
2023-05-10T05:25:20.944Z,10.50
2023-05-10T05:27:47.987Z,10.90
2023-05-10T05:30:15.416Z,11.10
2023-05-10T05:32:43.223Z,11.40
2023-05-10T05:35:10.614Z,11.70
2023-05-10T05:37:38.272Z,12.00
2023-05-10T05:40:06.507Z,12.40
2023-05-10T05:42:33.981Z,12.70
2023-05-10T05:45:01.663Z,13.00
2023-05-10T05:47:29.329Z,13.60
2023-05-10T05:49:56.916Z,14.60
2023-05-10T05:52:24.777Z,16.00
2023-05-10T05:54:52.206Z,16.80
2023-05-10T05:57:19.182Z,17.70
2023-05-10T05:59:46.845Z,17.70
2023-05-10T06:02:14.042Z,17.60
2023-05-10T06:04:44.404Z,16.80
2023-05-10T06:07:12.258Z,15.90
2023-05-10T06:09:39.535Z,15.30
2023-05-10T06:12:06.810Z,15.00
2023-05-10T06:14:33.930Z,15.30
2023-05-10T06:17:01.802Z,15.90
2023-05-10T06:19:29.087Z,17.20
2023-05-10T06:21:56.609Z,18.00
2023-05-10T06:24:23.603Z,18.00
2023-05-10T06:26:51.520Z,18.20
2023-05-10T06:29:18.665Z,19.10
2023-05-10T06:31:46.173Z,20.70
2023-05-10T06:34:14.606Z,22.40
2023-05-10T06:36:42.241Z,23.70
2023-05-10T06:39:09.429Z,25.00
2023-05-10T06:41:36.818Z,26.00
2023-05-10T06:44:04.854Z,26.00
2023-05-10T06:46:32.237Z,25.60
2023-05-10T06:48:59.375Z,25.20
2023-05-10T06:51:27.161Z,24.90
2023-05-10T06:53:54.290Z,24.40
2023-05-10T06:56:22.744Z,24.90
2023-05-10T06:58:50.273Z,24.60
2023-05-10T07:01:17.649Z,24.20
2023-05-10T07:03:44.980Z,24.60
2023-05-10T07:06:21.602Z,24.00
2023-05-10T07:08:58.217Z,23.40
2023-05-10T07:11:25.338Z,22.40
2023-05-10T07:13:52.435Z,21.30
2023-05-10T07:16:19.932Z,20.50
2023-05-10T07:18:47.640Z,20.20
2023-05-10T07:21:14.764Z,19.30
2023-05-10T07:23:44.309Z,19.30
2023-05-10T07:26:12.872Z,19.40
2023-05-10T07:28:40.176Z,19.90
2023-05-10T07:31:07.679Z,20.30
2023-05-10T07:33:34.942Z,20.50
2023-05-10T07:36:02.221Z,21.30
2023-05-10T07:38:31.073Z,21.60
2023-05-10T07:40:58.226Z,21.40
2023-05-10T07:43:25.423Z,22.50
2023-05-10T07:45:55.385Z,23.50
2023-05-10T07:48:23.509Z,23.20
2023-05-10T07:50:50.708Z,22.70
2023-05-10T07:53:19.799Z,23.20
2023-05-10T07:55:52.856Z,23.40
2023-05-10T07:58:19.966Z,23.60
2023-05-10T08:00:47.235Z,23.00
2023-05-10T08:03:14.721Z,22.40
2023-05-10T08:05:42.887Z,21.80
2023-05-10T08:08:10.069Z,21.90
2023-05-10T08:10:37.297Z,21.40
2023-05-10T08:13:04.644Z,21.60
2023-05-10T08:15:33.026Z,21.70
2023-05-10T08:18:00.676Z,21.50
2023-05-10T08:20:28.144Z,21.70
2023-05-10T08:22:55.329Z,22.70
2023-05-10T08:25:22.378Z,23.00
2023-05-10T08:27:49.679Z,23.10
2023-05-10T08:30:16.747Z,23.40
2023-05-10T08:32:43.973Z,23.50
2023-05-10T08:35:11.117Z,23.90
2023-05-10T08:37:38.275Z,24.20
2023-05-10T08:40:05.861Z,23.80
2023-05-10T08:42:38.772Z,22.80
2023-05-10T08:45:08.320Z,22.60
2023-05-10T08:47:39.168Z,21.90
2023-05-10T08:50:07.820Z,21.50
2023-05-10T08:52:41.329Z,21.20
2023-05-10T08:55:08.947Z,20.90
2023-05-10T08:57:37.474Z,20.50
2023-05-10T09:00:06.480Z,20.60
2023-05-10T09:02:34.150Z,20.90
2023-05-10T09:05:01.363Z,20.90
2023-05-10T09:07:28.795Z,20.90
2023-05-10T09:09:56.325Z,20.80
2023-05-10T09:12:23.789Z,20.20
2023-05-10T09:14:53.525Z,20.40
2023-05-10T09:17:21.213Z,20.50
2023-05-10T09:19:48.358Z,21.00
2023-05-10T09:22:15.583Z,21.30
2023-05-10T09:24:46.338Z,21.50
2023-05-10T09:27:13.539Z,21.10
2023-05-10T09:29:42.841Z,21.00
2023-05-10T09:32:09.957Z,20.60
2023-05-10T09:34:40.963Z,20.40
2023-05-10T09:37:09.209Z,20.40
2023-05-10T09:39:38.428Z,20.00
2023-05-10T09:42:07.785Z,19.70
2023-05-10T09:44:36.027Z,19.70
2023-05-10T09:47:04.031Z,19.80
2023-05-10T09:49:31.944Z,19.60
2023-05-10T09:52:01.515Z,19.60
2023-05-10T09:54:28.616Z,19.40
2023-05-10T09:56:55.727Z,19.40
2023-05-10T09:59:23.087Z,19.30
2023-05-10T10:01:56.706Z,19.80
2023-05-10T10:04:24.618Z,20.20
2023-05-10T10:07:01.821Z,20.10
2023-05-10T10:09:29.419Z,20.10
2023-05-10T10:11:57.752Z,20.40
2023-05-10T10:14:25.686Z,20.50
2023-05-10T10:17:06.833Z,20.70
2023-05-10T10:19:37.104Z,20.10
2023-05-10T10:22:04.841Z,20.20
2023-05-10T10:24:32.098Z,19.80
2023-05-10T10:27:10.197Z,19.80
2023-05-10T10:30:07.878Z,19.80
2023-05-10T10:33:05.589Z,20.00
2023-05-10T10:35:37.833Z,20.30
2023-05-10T10:38:05.456Z,20.50
2023-05-10T10:40:35.201Z,20.50
2023-05-10T10:43:23.257Z,21.10
2023-05-10T10:46:18.876Z,21.40
2023-05-10T10:49:08.982Z,21.50
2023-05-10T10:51:40.086Z,21.60
2023-05-10T10:54:27.868Z,22.10
2023-05-10T10:57:13.819Z,21.80
2023-05-10T10:59:46.452Z,21.10
2023-05-10T11:02:34.473Z,21.50
2023-05-10T11:05:21.563Z,21.20
2023-05-10T11:07:57.443Z,20.90
2023-05-10T11:10:25.587Z,20.90
2023-05-10T11:13:01.968Z,21.10
2023-05-10T11:15:32.030Z,21.30
2023-05-10T11:18:00.269Z,21.70
2023-05-10T11:20:34.273Z,21.50
2023-05-10T11:23:16.654Z,21.30
2023-05-10T11:25:45.360Z,21.40
2023-05-10T11:28:13.560Z,21.70
2023-05-10T11:30:41.877Z,22.10
2023-05-10T11:33:10.322Z,22.50
2023-05-10T11:35:43.031Z,23.00
2023-05-10T11:38:12.530Z,22.70
2023-05-10T11:40:40.914Z,21.90
2023-05-10T11:43:11.309Z,20.90
2023-05-10T11:45:38.988Z,20.00
2023-05-10T11:48:06.288Z,20.30
2023-05-10T11:50:33.807Z,20.30
2023-05-10T11:53:00.993Z,20.00
2023-05-10T11:55:28.168Z,20.00
2023-05-10T11:57:55.888Z,20.00
2023-05-10T12:00:23.209Z,20.10
2023-05-10T12:02:51.206Z,19.80
2023-05-10T12:05:18.948Z,19.80
2023-05-10T12:07:46.030Z,19.80
2023-05-10T12:10:16.358Z,19.90
2023-05-10T12:12:46.747Z,20.30
2023-05-10T12:15:20.917Z,20.40
2023-05-10T12:17:48.714Z,20.60
2023-05-10T12:20:25.232Z,20.70
2023-05-10T12:22:54.966Z,20.90
2023-05-10T12:25:23.906Z,21.00
2023-05-10T12:27:54.020Z,20.70
2023-05-10T12:30:23.244Z,20.70
2023-05-10T12:32:50.781Z,20.60
2023-05-10T12:35:18.051Z,20.80
2023-05-10T12:37:45.119Z,20.80
2023-05-10T12:40:13.501Z,20.60
2023-05-10T12:42:41.368Z,20.50
2023-05-10T12:45:09.785Z,20.60
2023-05-10T12:47:37.256Z,20.50
2023-05-10T12:50:05.148Z,20.50
2023-05-10T12:52:34.202Z,20.50
2023-05-10T12:55:02.012Z,20.60
2023-05-10T12:57:29.279Z,20.40
2023-05-10T12:59:56.775Z,20.40
2023-05-10T13:02:24.336Z,20.20
2023-05-10T13:04:51.751Z,20.50
2023-05-10T13:07:18.925Z,20.50
2023-05-10T13:09:46.075Z,20.40
2023-05-10T13:12:13.183Z,20.30
2023-05-10T13:14:41.656Z,20.20
2023-05-10T13:17:08.908Z,20.20
2023-05-10T13:19:36.146Z,20.40
2023-05-10T13:22:03.931Z,20.70
2023-05-10T13:24:31.103Z,20.70
2023-05-10T13:26:58.118Z,20.90
2023-05-10T13:29:25.348Z,21.10
2023-05-10T13:31:52.641Z,21.30
2023-05-10T13:34:21.628Z,21.40
2023-05-10T13:36:50.034Z,21.50
2023-05-10T13:39:17.256Z,21.60
2023-05-10T13:41:44.417Z,21.60
2023-05-10T13:44:14.106Z,21.50
2023-05-10T13:46:42.095Z,21.70
2023-05-10T13:49:10.197Z,21.70
2023-05-10T13:51:37.391Z,21.70
2023-05-10T13:54:04.690Z,21.50
2023-05-10T13:56:31.759Z,21.10
2023-05-10T13:58:59.552Z,21.20
2023-05-10T14:01:26.796Z,21.10
2023-05-10T14:03:54.028Z,21.10
2023-05-10T14:06:21.448Z,20.80
2023-05-10T14:08:48.790Z,20.70
2023-05-10T14:11:16.328Z,20.30
2023-05-10T14:13:43.600Z,20.00
2023-05-10T14:16:10.825Z,19.90
2023-05-10T14:18:38.152Z,19.60
2023-05-10T14:21:05.772Z,19.50
2023-05-10T14:23:33.150Z,19.40
2023-05-10T14:26:00.341Z,19.20
2023-05-10T14:28:27.527Z,19.30
2023-05-10T14:30:54.786Z,19.20
2023-05-10T14:33:22.214Z,19.30
2023-05-10T14:35:49.635Z,19.30
2023-05-10T14:38:16.736Z,19.20
2023-05-10T14:40:44.148Z,19.30
2023-05-10T14:43:11.312Z,19.30
2023-05-10T14:45:38.414Z,19.20
2023-05-10T14:48:06.963Z,19.20
2023-05-10T14:50:36.888Z,19.30
2023-05-10T14:53:04.922Z,19.20
2023-05-10T14:55:32.145Z,19.00
2023-05-10T14:57:59.743Z,18.80
2023-05-10T15:00:27.522Z,18.70
2023-05-10T15:02:55.279Z,18.50
2023-05-10T15:05:23.363Z,18.50
2023-05-10T15:07:51.319Z,18.50
2023-05-10T15:10:19.349Z,18.60
2023-05-10T15:12:46.398Z,18.60
2023-05-10T15:15:13.498Z,18.70
2023-05-10T15:17:40.579Z,18.80
2023-05-10T15:20:08.472Z,18.70
2023-05-10T15:22:35.603Z,18.60
2023-05-10T15:25:02.788Z,18.50
2023-05-10T15:27:29.837Z,18.30
2023-05-10T15:29:57.003Z,18.20
2023-05-10T15:32:24.097Z,18.10
2023-05-10T15:34:51.249Z,18.10
2023-05-10T15:37:18.311Z,18.20
2023-05-10T15:39:45.572Z,18.10
2023-05-10T15:42:13.220Z,18.20
2023-05-10T15:44:40.291Z,18.20
2023-05-10T15:47:07.544Z,18.30
2023-05-10T15:49:34.866Z,18.30
2023-05-10T15:52:02.068Z,18.30
2023-05-10T15:54:29.353Z,18.30
2023-05-10T15:56:56.652Z,18.30
2023-05-10T15:59:23.746Z,18.30
2023-05-10T16:01:52.052Z,18.20
2023-05-10T16:04:19.196Z,18.10
2023-05-10T16:06:46.244Z,18.10
2023-05-10T16:09:13.304Z,18.20
2023-05-10T16:11:40.500Z,18.20
2023-05-10T16:14:07.569Z,18.20
2023-05-10T16:16:35.119Z,18.20
2023-05-10T16:19:03.882Z,18.10
2023-05-10T16:21:32.822Z,18.10
2023-05-10T16:24:01.173Z,18.10
2023-05-10T16:26:28.314Z,18.00
2023-05-10T16:28:55.281Z,17.90
2023-05-10T16:31:22.418Z,17.80
2023-05-10T16:33:50.519Z,17.70
2023-05-10T16:36:17.540Z,17.60
2023-05-10T16:38:44.815Z,17.60
2023-05-10T16:41:11.913Z,17.60
2023-05-10T16:43:38.966Z,17.60
2023-05-10T16:46:11.669Z,17.60
2023-05-10T16:48:39.064Z,17.50
2023-05-10T16:51:06.199Z,17.50
2023-05-10T16:53:33.981Z,17.50
2023-05-10T16:56:01.348Z,17.40
2023-05-10T16:58:28.476Z,17.30
2023-05-10T17:00:55.594Z,17.30
2023-05-10T17:03:22.769Z,17.30
2023-05-10T17:05:49.992Z,17.20
2023-05-10T17:08:17.256Z,17.20
2023-05-10T17:10:44.369Z,17.20
2023-05-10T17:13:11.469Z,17.10
2023-05-10T17:15:39.526Z,17.10
2023-05-10T17:18:07.585Z,17.00
2023-05-10T17:20:35.107Z,17.00
2023-05-10T17:23:03.405Z,17.00
2023-05-10T17:25:30.602Z,16.90
2023-05-10T17:27:57.760Z,16.90
2023-05-10T17:30:27.670Z,16.80
2023-05-10T17:32:54.938Z,16.80
2023-05-10T17:35:22.165Z,16.70
2023-05-10T17:37:49.300Z,16.70
2023-05-10T17:40:16.450Z,16.70
2023-05-10T17:42:43.585Z,16.60
2023-05-10T17:45:11.244Z,16.50
2023-05-10T17:47:38.748Z,16.50
2023-05-10T17:50:06.775Z,16.40
2023-05-10T17:52:34.053Z,16.30
2023-05-10T17:55:01.495Z,16.20
2023-05-10T17:57:28.826Z,16.10
2023-05-10T17:59:56.025Z,16.10
2023-05-10T18:02:23.079Z,16.00
2023-05-10T18:04:50.342Z,15.80
2023-05-10T18:07:17.552Z,15.80
2023-05-10T18:09:44.564Z,15.70
2023-05-10T18:12:11.755Z,15.70
2023-05-10T18:14:41.100Z,15.60
2023-05-10T18:17:09.797Z,15.50
2023-05-10T18:19:37.082Z,15.50
2023-05-10T18:22:04.348Z,15.40
2023-05-10T18:24:38.912Z,15.30
2023-05-10T18:27:08.737Z,15.30
2023-05-10T18:29:37.047Z,15.20
2023-05-10T18:32:04.413Z,15.20
2023-05-10T18:34:31.772Z,15.10
2023-05-10T18:36:59.683Z,15.10
2023-05-10T18:39:27.020Z,15.00
2023-05-10T18:41:54.680Z,15.00
2023-05-10T18:44:23.320Z,14.90
2023-05-10T18:46:54.147Z,14.90
2023-05-10T18:49:21.673Z,14.80
2023-05-10T18:51:49.252Z,14.80
2023-05-10T18:54:16.893Z,14.80
2023-05-10T18:56:45.823Z,14.70
2023-05-10T18:59:13.462Z,14.70
2023-05-10T19:01:42.259Z,14.70
2023-05-10T19:04:09.944Z,14.70
2023-05-10T19:06:37.418Z,14.70
2023-05-10T19:09:04.856Z,14.70
2023-05-10T19:11:34.524Z,14.70
2023-05-10T19:14:02.754Z,14.70
2023-05-10T19:16:30.555Z,14.70
2023-05-10T19:18:58.616Z,14.60
2023-05-10T19:21:26.417Z,14.50
2023-05-10T19:23:53.875Z,14.50
2023-05-10T19:26:22.546Z,14.50
2023-05-10T19:28:53.771Z,14.50
2023-05-10T19:31:22.019Z,14.40
2023-05-10T19:33:49.346Z,14.40
2023-05-10T19:36:16.560Z,14.40
2023-05-10T19:38:43.856Z,14.40
2023-05-10T19:41:11.815Z,14.40
2023-05-10T19:43:39.938Z,14.30
2023-05-10T19:46:09.124Z,14.30
2023-05-10T19:48:36.431Z,14.20
2023-05-10T19:51:07.024Z,14.30
2023-05-10T19:53:36.820Z,14.30
2023-05-10T19:56:06.832Z,14.20
2023-05-10T19:58:34.591Z,14.20
2023-05-10T20:01:01.941Z,14.20
2023-05-10T20:03:29.442Z,14.10
2023-05-10T20:05:57.058Z,14.10
2023-05-10T20:08:25.154Z,14.10
2023-05-10T20:10:52.962Z,14.10
2023-05-10T20:13:20.921Z,14.10
2023-05-10T20:15:49.457Z,14.10
2023-05-10T20:18:16.703Z,14.10
2023-05-10T20:20:44.175Z,14.10
2023-05-10T20:23:11.438Z,14.10
2023-05-10T20:25:38.793Z,14.10
2023-05-10T20:28:08.089Z,14.10
2023-05-10T20:30:35.790Z,14.10
2023-05-10T20:33:04.630Z,14.00
2023-05-10T20:35:32.272Z,14.10
2023-05-10T20:38:00.304Z,14.00
2023-05-10T20:40:27.600Z,14.00
2023-05-10T20:42:54.955Z,14.00
2023-05-10T20:45:22.393Z,14.00
2023-05-10T20:47:50.421Z,14.10
2023-05-10T20:50:17.781Z,14.00
2023-05-10T20:52:45.284Z,14.00
2023-05-10T20:55:12.819Z,13.90
2023-05-10T20:57:40.082Z,13.90
2023-05-10T21:00:08.295Z,13.90
2023-05-10T21:02:35.555Z,13.80
2023-05-10T21:05:02.751Z,13.80
2023-05-10T21:07:32.373Z,13.80
2023-05-10T21:09:59.545Z,13.80
2023-05-10T21:12:26.892Z,13.80
2023-05-10T21:14:54.016Z,13.70
2023-05-10T21:17:21.232Z,13.70
2023-05-10T21:19:48.401Z,13.70
2023-05-10T21:22:15.885Z,13.70
2023-05-10T21:24:43.523Z,13.70
2023-05-10T21:27:11.260Z,13.70
2023-05-10T21:29:38.304Z,13.70
2023-05-10T21:32:05.803Z,13.70
2023-05-10T21:34:33.326Z,13.70
2023-05-10T21:37:01.402Z,13.70
2023-05-10T21:39:28.583Z,13.70
2023-05-10T21:41:56.200Z,13.70
2023-05-10T21:44:23.739Z,13.70
2023-05-10T21:46:50.787Z,13.70
2023-05-10T21:49:17.908Z,13.60
2023-05-10T21:51:45.157Z,13.60
2023-05-10T21:54:12.201Z,13.60
2023-05-10T21:56:39.342Z,13.60
2023-05-10T21:59:06.822Z,13.60
2023-05-10T22:01:34.010Z,13.60
2023-05-10T22:04:01.318Z,13.50
2023-05-10T22:06:28.326Z,13.50
2023-05-10T22:08:55.643Z,13.50
2023-05-10T22:11:23.219Z,13.50
2023-05-10T22:13:50.354Z,13.40
2023-05-10T22:16:17.610Z,13.40
2023-05-10T22:18:44.878Z,13.40
2023-05-10T22:21:12.068Z,13.40
2023-05-10T22:23:39.162Z,13.40
2023-05-10T22:26:06.480Z,13.50
2023-05-10T22:28:33.676Z,13.50
2023-05-10T22:31:01.002Z,13.40
2023-05-10T22:33:28.154Z,13.40
2023-05-10T22:35:55.319Z,13.40
2023-05-10T22:38:22.440Z,13.40
2023-05-10T22:40:49.551Z,13.50
2023-05-10T22:43:17.273Z,13.60
2023-05-10T22:45:44.502Z,13.60
2023-05-10T22:48:11.917Z,13.50
2023-05-10T22:50:39.228Z,13.50
2023-05-10T22:53:06.776Z,13.50
2023-05-10T22:55:34.027Z,13.40
2023-05-10T22:58:01.277Z,13.40
2023-05-10T23:00:28.301Z,13.40
2023-05-10T23:02:55.712Z,13.40
2023-05-10T23:05:22.827Z,13.40
2023-05-10T23:07:53.251Z,13.40
2023-05-10T23:10:20.961Z,13.40
2023-05-10T23:12:48.178Z,13.30
2023-05-10T23:15:15.400Z,13.30
2023-05-10T23:17:42.921Z,13.30
2023-05-10T23:20:10.909Z,13.30
2023-05-10T23:22:38.004Z,13.30
2023-05-10T23:25:05.857Z,13.20
2023-05-10T23:27:33.081Z,13.20
2023-05-10T23:30:00.344Z,13.20
2023-05-10T23:32:27.497Z,13.20
2023-05-10T23:34:54.632Z,13.20
2023-05-10T23:37:21.847Z,13.20
2023-05-10T23:39:48.913Z,13.10
2023-05-10T23:42:16.099Z,13.10
2023-05-10T23:44:43.157Z,13.10
2023-05-10T23:47:10.443Z,13.10
2023-05-10T23:49:38.147Z,13.10
2023-05-10T23:55:34.810Z,13.10
2023-05-10T23:58:02.103Z,13.10
